sensor_id;sensor_type;location;lat;lon;timestamp;P1;durP1;ratioP1;P2;durP2;ratioP2
22040;SDS011;11184;52.444;13.578;2023-09-30T00:02:12;2.92;;;0.82;;
22040;SDS011;11184;52.444;13.578;2023-09-30T00:04:56;3.28;;;0.98;;
22040;SDS011;11184;52.444;13.578;2023-09-30T00:07:41;2.88;;;1.63;;
22040;SDS011;11184;52.444;13.578;2023-09-30T00:10:26;4.95;;;1.02;;
22040;SDS011;11184;52.444;13.578;2023-09-30T00:13:10;3.45;;;0.98;;
22040;SDS011;11184;52.444;13.578;2023-09-30T00:15:55;3.75;;;1.25;;
22040;SDS011;11184;52.444;13.578;2023-09-30T00:18:40;4.05;;;1.23;;
22040;SDS011;11184;52.444;13.578;2023-09-30T00:21:25;4.03;;;1.38;;
22040;SDS011;11184;52.444;13.578;2023-09-30T00:24:10;1.33;;;1.23;;
22040;SDS011;11184;52.444;13.578;2023-09-30T00:26:54;7.90;;;2.20;;
22040;SDS011;11184;52.444;13.578;2023-09-30T00:29:40;4.20;;;1.02;;
22040;SDS011;11184;52.444;13.578;2023-09-30T00:32:25;4.13;;;1.70;;
22040;SDS011;11184;52.444;13.578;2023-09-30T00:35:10;4.70;;;1.10;;
22040;SDS011;11184;52.444;13.578;2023-09-30T00:37:54;18.23;;;2.30;;
22040;SDS011;11184;52.444;13.578;2023-09-30T00:40:39;7.85;;;1.70;;
22040;SDS011;11184;52.444;13.578;2023-09-30T00:43:23;6.68;;;1.85;;
22040;SDS011;11184;52.444;13.578;2023-09-30T00:46:18;5.18;;;1.77;;
22040;SDS011;11184;52.444;13.578;2023-09-30T00:49:05;5.15;;;1.73;;
22040;SDS011;11184;52.444;13.578;2023-09-30T00:51:50;13.73;;;2.33;;
22040;SDS011;11184;52.444;13.578;2023-09-30T00:54:35;10.90;;;2.53;;
22040;SDS011;11184;52.444;13.578;2023-09-30T00:57:21;10.50;;;2.15;;
22040;SDS011;11184;52.444;13.578;2023-09-30T01:00:06;17.40;;;2.45;;
22040;SDS011;11184;52.444;13.578;2023-09-30T01:02:55;12.90;;;2.13;;
22040;SDS011;11184;52.444;13.578;2023-09-30T01:05:43;4.85;;;1.98;;
22040;SDS011;11184;52.444;13.578;2023-09-30T01:08:27;7.88;;;1.60;;
22040;SDS011;11184;52.444;13.578;2023-09-30T01:11:12;6.38;;;2.45;;
22040;SDS011;11184;52.444;13.578;2023-09-30T01:13:57;11.93;;;2.25;;
22040;SDS011;11184;52.444;13.578;2023-09-30T01:16:42;3.67;;;1.73;;
22040;SDS011;11184;52.444;13.578;2023-09-30T01:19:27;9.82;;;2.20;;
22040;SDS011;11184;52.444;13.578;2023-09-30T01:22:13;7.90;;;2.15;;
22040;SDS011;11184;52.444;13.578;2023-09-30T01:24:58;13.25;;;2.42;;
22040;SDS011;11184;52.444;13.578;2023-09-30T01:27:43;7.45;;;1.83;;
22040;SDS011;11184;52.444;13.578;2023-09-30T01:30:27;9.02;;;3.10;;
22040;SDS011;11184;52.444;13.578;2023-09-30T01:33:12;20.23;;;3.92;;
22040;SDS011;11184;52.444;13.578;2023-09-30T01:35:57;11.88;;;2.45;;
22040;SDS011;11184;52.444;13.578;2023-09-30T01:38:42;16.88;;;3.15;;
22040;SDS011;11184;52.444;13.578;2023-09-30T01:41:26;9.63;;;2.97;;
22040;SDS011;11184;52.444;13.578;2023-09-30T01:44:11;8.27;;;2.72;;
22040;SDS011;11184;52.444;13.578;2023-09-30T01:46:56;9.20;;;3.17;;
22040;SDS011;11184;52.444;13.578;2023-09-30T01:49:40;14.88;;;3.38;;
22040;SDS011;11184;52.444;13.578;2023-09-30T01:52:25;13.85;;;2.70;;
22040;SDS011;11184;52.444;13.578;2023-09-30T01:55:10;10.43;;;3.10;;
22040;SDS011;11184;52.444;13.578;2023-09-30T01:57:55;9.15;;;3.08;;
22040;SDS011;11184;52.444;13.578;2023-09-30T02:00:39;7.80;;;2.20;;
22040;SDS011;11184;52.444;13.578;2023-09-30T02:03:24;7.85;;;2.85;;
22040;SDS011;11184;52.444;13.578;2023-09-30T02:06:08;12.27;;;2.45;;
22040;SDS011;11184;52.444;13.578;2023-09-30T02:08:53;7.47;;;2.08;;
22040;SDS011;11184;52.444;13.578;2023-09-30T02:11:38;8.32;;;2.88;;
22040;SDS011;11184;52.444;13.578;2023-09-30T02:14:25;8.32;;;2.67;;
22040;SDS011;11184;52.444;13.578;2023-09-30T02:17:10;11.60;;;2.50;;
22040;SDS011;11184;52.444;13.578;2023-09-30T02:19:55;11.38;;;2.92;;
22040;SDS011;11184;52.444;13.578;2023-09-30T02:22:40;6.47;;;2.50;;
22040;SDS011;11184;52.444;13.578;2023-09-30T02:25:24;6.05;;;2.38;;
22040;SDS011;11184;52.444;13.578;2023-09-30T02:28:09;10.95;;;2.80;;
22040;SDS011;11184;52.444;13.578;2023-09-30T02:30:53;10.40;;;1.95;;
22040;SDS011;11184;52.444;13.578;2023-09-30T02:33:38;12.30;;;3.72;;
22040;SDS011;11184;52.444;13.578;2023-09-30T02:36:22;10.85;;;2.90;;
22040;SDS011;11184;52.444;13.578;2023-09-30T02:39:07;7.72;;;3.53;;
22040;SDS011;11184;52.444;13.578;2023-09-30T02:41:55;9.00;;;3.17;;
22040;SDS011;11184;52.444;13.578;2023-09-30T02:44:40;5.65;;;2.60;;
22040;SDS011;11184;52.444;13.578;2023-09-30T02:47:25;5.35;;;2.85;;
22040;SDS011;11184;52.444;13.578;2023-09-30T02:50:09;7.43;;;2.95;;
22040;SDS011;11184;52.444;13.578;2023-09-30T02:52:57;12.80;;;3.47;;
22040;SDS011;11184;52.444;13.578;2023-09-30T02:55:42;10.50;;;3.17;;
22040;SDS011;11184;52.444;13.578;2023-09-30T02:58:26;14.55;;;4.32;;
22040;SDS011;11184;52.444;13.578;2023-09-30T03:01:15;10.18;;;3.08;;
22040;SDS011;11184;52.444;13.578;2023-09-30T03:04:00;12.98;;;3.78;;
22040;SDS011;11184;52.444;13.578;2023-09-30T03:06:45;13.10;;;3.42;;
22040;SDS011;11184;52.444;13.578;2023-09-30T03:09:31;8.57;;;2.55;;
22040;SDS011;11184;52.444;13.578;2023-09-30T03:12:16;11.07;;;4.43;;
22040;SDS011;11184;52.444;13.578;2023-09-30T03:15:01;8.82;;;2.90;;
22040;SDS011;11184;52.444;13.578;2023-09-30T03:17:48;12.60;;;3.30;;
22040;SDS011;11184;52.444;13.578;2023-09-30T03:20:33;9.68;;;3.13;;
22040;SDS011;11184;52.444;13.578;2023-09-30T03:23:18;12.45;;;3.38;;
22040;SDS011;11184;52.444;13.578;2023-09-30T03:26:03;11.50;;;3.80;;
22040;SDS011;11184;52.444;13.578;2023-09-30T03:28:47;7.88;;;3.22;;
22040;SDS011;11184;52.444;13.578;2023-09-30T03:31:33;12.27;;;3.78;;
22040;SDS011;11184;52.444;13.578;2023-09-30T03:34:18;10.65;;;3.75;;
22040;SDS011;11184;52.444;13.578;2023-09-30T03:37:04;7.07;;;3.58;;
22040;SDS011;11184;52.444;13.578;2023-09-30T03:39:54;13.32;;;4.22;;
22040;SDS011;11184;52.444;13.578;2023-09-30T03:42:39;16.00;;;4.15;;
22040;SDS011;11184;52.444;13.578;2023-09-30T03:45:25;16.70;;;3.15;;
22040;SDS011;11184;52.444;13.578;2023-09-30T03:48:11;16.02;;;3.45;;
22040;SDS011;11184;52.444;13.578;2023-09-30T03:50:55;10.45;;;3.88;;
22040;SDS011;11184;52.444;13.578;2023-09-30T03:53:44;13.68;;;3.70;;
22040;SDS011;11184;52.444;13.578;2023-09-30T03:56:29;11.43;;;3.50;;
22040;SDS011;11184;52.444;13.578;2023-09-30T03:59:13;14.30;;;2.92;;
22040;SDS011;11184;52.444;13.578;2023-09-30T04:01:59;11.80;;;4.10;;
22040;SDS011;11184;52.444;13.578;2023-09-30T04:04:45;16.25;;;3.90;;
22040;SDS011;11184;52.444;13.578;2023-09-30T04:07:30;14.13;;;4.00;;
22040;SDS011;11184;52.444;13.578;2023-09-30T04:10:14;17.35;;;4.80;;
22040;SDS011;11184;52.444;13.578;2023-09-30T04:12:59;19.83;;;4.28;;
22040;SDS011;11184;52.444;13.578;2023-09-30T04:15:44;12.35;;;3.20;;
22040;SDS011;11184;52.444;13.578;2023-09-30T04:18:30;8.60;;;4.03;;
22040;SDS011;11184;52.444;13.578;2023-09-30T04:21:15;16.42;;;4.47;;
22040;SDS011;11184;52.444;13.578;2023-09-30T04:23:59;12.48;;;4.07;;
22040;SDS011;11184;52.444;13.578;2023-09-30T04:26:44;12.95;;;3.13;;
22040;SDS011;11184;52.444;13.578;2023-09-30T04:29:29;16.70;;;5.05;;
22040;SDS011;11184;52.444;13.578;2023-09-30T04:32:14;9.07;;;3.65;;
22040;SDS011;11184;52.444;13.578;2023-09-30T04:34:59;7.30;;;4.03;;
22040;SDS011;11184;52.444;13.578;2023-09-30T04:37:44;15.93;;;3.45;;
22040;SDS011;11184;52.444;13.578;2023-09-30T04:40:29;15.00;;;4.97;;
22040;SDS011;11184;52.444;13.578;2023-09-30T04:43:13;15.88;;;4.82;;
22040;SDS011;11184;52.444;13.578;2023-09-30T04:45:58;12.30;;;4.10;;
22040;SDS011;11184;52.444;13.578;2023-09-30T04:48:42;11.38;;;4.80;;
22040;SDS011;11184;52.444;13.578;2023-09-30T04:51:31;11.23;;;3.28;;
22040;SDS011;11184;52.444;13.578;2023-09-30T04:54:17;11.25;;;4.13;;
22040;SDS011;11184;52.444;13.578;2023-09-30T04:57:01;15.90;;;3.80;;
22040;SDS011;11184;52.444;13.578;2023-09-30T04:59:46;20.75;;;4.75;;
22040;SDS011;11184;52.444;13.578;2023-09-30T05:02:30;10.25;;;3.80;;
22040;SDS011;11184;52.444;13.578;2023-09-30T05:05:15;21.10;;;5.00;;
22040;SDS011;11184;52.444;13.578;2023-09-30T05:08:00;13.57;;;4.72;;
22040;SDS011;11184;52.444;13.578;2023-09-30T05:10:45;15.98;;;4.85;;
22040;SDS011;11184;52.444;13.578;2023-09-30T05:13:29;19.25;;;4.25;;
22040;SDS011;11184;52.444;13.578;2023-09-30T05:16:14;18.40;;;4.63;;
22040;SDS011;11184;52.444;13.578;2023-09-30T05:18:59;13.55;;;4.45;;
22040;SDS011;11184;52.444;13.578;2023-09-30T05:21:44;14.38;;;5.13;;
22040;SDS011;11184;52.444;13.578;2023-09-30T05:24:29;23.98;;;5.40;;
22040;SDS011;11184;52.444;13.578;2023-09-30T05:27:13;16.27;;;4.05;;
22040;SDS011;11184;52.444;13.578;2023-09-30T05:29:58;13.40;;;5.30;;
22040;SDS011;11184;52.444;13.578;2023-09-30T05:32:43;16.45;;;4.25;;
22040;SDS011;11184;52.444;13.578;2023-09-30T05:35:29;17.23;;;4.90;;
22040;SDS011;11184;52.444;13.578;2023-09-30T05:38:15;22.35;;;4.75;;
22040;SDS011;11184;52.444;13.578;2023-09-30T05:41:03;12.85;;;4.72;;
22040;SDS011;11184;52.444;13.578;2023-09-30T05:43:50;15.38;;;4.32;;
22040;SDS011;11184;52.444;13.578;2023-09-30T05:46:34;15.85;;;4.72;;
22040;SDS011;11184;52.444;13.578;2023-09-30T05:49:19;16.58;;;4.32;;
22040;SDS011;11184;52.444;13.578;2023-09-30T05:52:03;17.50;;;6.15;;
22040;SDS011;11184;52.444;13.578;2023-09-30T05:54:48;15.18;;;4.65;;
22040;SDS011;11184;52.444;13.578;2023-09-30T05:57:33;15.02;;;4.28;;
22040;SDS011;11184;52.444;13.578;2023-09-30T06:00:18;15.13;;;4.07;;
22040;SDS011;11184;52.444;13.578;2023-09-30T06:03:06;15.90;;;4.80;;
22040;SDS011;11184;52.444;13.578;2023-09-30T06:05:51;14.77;;;3.92;;
22040;SDS011;11184;52.444;13.578;2023-09-30T06:08:36;12.52;;;4.60;;
22040;SDS011;11184;52.444;13.578;2023-09-30T06:11:21;16.98;;;4.88;;
22040;SDS011;11184;52.444;13.578;2023-09-30T06:14:09;13.65;;;4.57;;
22040;SDS011;11184;52.444;13.578;2023-09-30T06:16:53;9.15;;;4.10;;
22040;SDS011;11184;52.444;13.578;2023-09-30T06:19:39;15.55;;;4.43;;
22040;SDS011;11184;52.444;13.578;2023-09-30T06:22:23;8.50;;;3.20;;
22040;SDS011;11184;52.444;13.578;2023-09-30T06:25:10;10.90;;;4.28;;
22040;SDS011;11184;52.444;13.578;2023-09-30T06:27:54;14.73;;;3.92;;
22040;SDS011;11184;52.444;13.578;2023-09-30T06:30:39;16.90;;;4.07;;
22040;SDS011;11184;52.444;13.578;2023-09-30T06:33:26;14.90;;;4.25;;
22040;SDS011;11184;52.444;13.578;2023-09-30T06:36:13;16.88;;;4.65;;
22040;SDS011;11184;52.444;13.578;2023-09-30T06:38:58;15.77;;;4.70;;
22040;SDS011;11184;52.444;13.578;2023-09-30T06:41:44;9.88;;;3.33;;
22040;SDS011;11184;52.444;13.578;2023-09-30T06:44:29;11.52;;;4.60;;
22040;SDS011;11184;52.444;13.578;2023-09-30T06:47:14;20.90;;;4.43;;
22040;SDS011;11184;52.444;13.578;2023-09-30T06:50:04;12.13;;;3.58;;
22040;SDS011;11184;52.444;13.578;2023-09-30T06:52:51;9.98;;;3.58;;
22040;SDS011;11184;52.444;13.578;2023-09-30T06:55:38;18.48;;;3.83;;
22040;SDS011;11184;52.444;13.578;2023-09-30T06:58:23;8.70;;;2.92;;
22040;SDS011;11184;52.444;13.578;2023-09-30T07:01:08;20.15;;;4.05;;
22040;SDS011;11184;52.444;13.578;2023-09-30T07:03:53;8.43;;;3.00;;
22040;SDS011;11184;52.444;13.578;2023-09-30T07:06:38;13.77;;;3.72;;
22040;SDS011;11184;52.444;13.578;2023-09-30T07:09:22;12.43;;;4.20;;
22040;SDS011;11184;52.444;13.578;2023-09-30T07:12:07;12.25;;;3.67;;
22040;SDS011;11184;52.444;13.578;2023-09-30T07:14:52;13.52;;;3.25;;
22040;SDS011;11184;52.444;13.578;2023-09-30T07:17:37;23.30;;;4.18;;
22040;SDS011;11184;52.444;13.578;2023-09-30T07:20:22;18.88;;;3.88;;
22040;SDS011;11184;52.444;13.578;2023-09-30T07:23:06;10.18;;;3.70;;
22040;SDS011;11184;52.444;13.578;2023-09-30T07:25:52;9.20;;;3.10;;
22040;SDS011;11184;52.444;13.578;2023-09-30T07:28:37;10.32;;;3.88;;
22040;SDS011;11184;52.444;13.578;2023-09-30T07:31:21;12.15;;;3.90;;
22040;SDS011;11184;52.444;13.578;2023-09-30T07:34:07;13.95;;;2.22;;
22040;SDS011;11184;52.444;13.578;2023-09-30T07:36:51;13.25;;;4.38;;
22040;SDS011;11184;52.444;13.578;2023-09-30T07:39:36;15.50;;;3.30;;
22040;SDS011;11184;52.444;13.578;2023-09-30T07:42:25;10.00;;;4.07;;
22040;SDS011;11184;52.444;13.578;2023-09-30T07:45:16;19.40;;;4.13;;
22040;SDS011;11184;52.444;13.578;2023-09-30T07:48:03;14.57;;;3.35;;
22040;SDS011;11184;52.444;13.578;2023-09-30T07:50:48;6.60;;;2.90;;
22040;SDS011;11184;52.444;13.578;2023-09-30T07:53:32;14.18;;;3.25;;
22040;SDS011;11184;52.444;13.578;2023-09-30T07:56:17;13.90;;;4.93;;
22040;SDS011;11184;52.444;13.578;2023-09-30T07:59:02;8.55;;;3.10;;
22040;SDS011;11184;52.444;13.578;2023-09-30T08:01:47;10.80;;;3.22;;
22040;SDS011;11184;52.444;13.578;2023-09-30T08:04:32;11.65;;;3.60;;
22040;SDS011;11184;52.444;13.578;2023-09-30T08:07:17;10.50;;;3.60;;
22040;SDS011;11184;52.444;13.578;2023-09-30T08:10:02;5.97;;;2.55;;
22040;SDS011;11184;52.444;13.578;2023-09-30T08:12:50;13.98;;;3.22;;
22040;SDS011;11184;52.444;13.578;2023-09-30T08:15:35;10.13;;;2.95;;
22040;SDS011;11184;52.444;13.578;2023-09-30T08:18:20;10.80;;;2.78;;
22040;SDS011;11184;52.444;13.578;2023-09-30T08:21:08;7.70;;;3.55;;
22040;SDS011;11184;52.444;13.578;2023-09-30T08:23:54;11.80;;;3.55;;
22040;SDS011;11184;52.444;13.578;2023-09-30T08:26:38;12.20;;;3.97;;
22040;SDS011;11184;52.444;13.578;2023-09-30T08:29:23;11.90;;;3.25;;
22040;SDS011;11184;52.444;13.578;2023-09-30T08:32:07;12.82;;;3.38;;
22040;SDS011;11184;52.444;13.578;2023-09-30T08:34:52;13.38;;;3.30;;
22040;SDS011;11184;52.444;13.578;2023-09-30T08:37:38;12.50;;;2.80;;
22040;SDS011;11184;52.444;13.578;2023-09-30T08:40:22;11.18;;;2.85;;
22040;SDS011;11184;52.444;13.578;2023-09-30T08:43:07;14.25;;;3.88;;
22040;SDS011;11184;52.444;13.578;2023-09-30T08:45:55;10.77;;;3.60;;
22040;SDS011;11184;52.444;13.578;2023-09-30T08:48:40;11.77;;;2.83;;
22040;SDS011;11184;52.444;13.578;2023-09-30T08:51:25;16.95;;;3.42;;
22040;SDS011;11184;52.444;13.578;2023-09-30T08:54:09;8.57;;;2.58;;
22040;SDS011;11184;52.444;13.578;2023-09-30T08:56:54;16.85;;;3.90;;
22040;SDS011;11184;52.444;13.578;2023-09-30T08:59:41;12.63;;;2.63;;
22040;SDS011;11184;52.444;13.578;2023-09-30T09:02:25;10.80;;;3.70;;
22040;SDS011;11184;52.444;13.578;2023-09-30T09:05:10;10.10;;;2.92;;
22040;SDS011;11184;52.444;13.578;2023-09-30T09:07:54;13.30;;;2.83;;
22040;SDS011;11184;52.444;13.578;2023-09-30T09:10:47;10.38;;;3.08;;
22040;SDS011;11184;52.444;13.578;2023-09-30T09:13:51;9.65;;;3.10;;
22040;SDS011;11184;52.444;13.578;2023-09-30T09:16:52;8.73;;;2.53;;
22040;SDS011;11184;52.444;13.578;2023-09-30T09:19:36;9.38;;;3.15;;
22040;SDS011;11184;52.444;13.578;2023-09-30T09:22:21;7.85;;;1.98;;
22040;SDS011;11184;52.444;13.578;2023-09-30T09:25:06;12.18;;;2.38;;
22040;SDS011;11184;52.444;13.578;2023-09-30T09:27:51;11.35;;;3.50;;
22040;SDS011;11184;52.444;13.578;2023-09-30T09:30:37;12.77;;;3.08;;
22040;SDS011;11184;52.444;13.578;2023-09-30T09:33:31;13.38;;;3.00;;
22040;SDS011;11184;52.444;13.578;2023-09-30T09:36:20;7.57;;;3.25;;
22040;SDS011;11184;52.444;13.578;2023-09-30T09:39:05;6.90;;;2.33;;
22040;SDS011;11184;52.444;13.578;2023-09-30T09:41:51;14.98;;;3.13;;
22040;SDS011;11184;52.444;13.578;2023-09-30T09:44:36;13.00;;;3.22;;
22040;SDS011;11184;52.444;13.578;2023-09-30T09:47:21;8.43;;;2.67;;
22040;SDS011;11184;52.444;13.578;2023-09-30T09:50:06;9.80;;;2.15;;
22040;SDS011;11184;52.444;13.578;2023-09-30T09:52:51;11.15;;;2.33;;
22040;SDS011;11184;52.444;13.578;2023-09-30T09:55:37;7.38;;;2.10;;
22040;SDS011;11184;52.444;13.578;2023-09-30T09:58:23;13.82;;;2.55;;
22040;SDS011;11184;52.444;13.578;2023-09-30T10:01:08;10.68;;;2.85;;
22040;SDS011;11184;52.444;13.578;2023-09-30T10:03:53;9.77;;;3.25;;
22040;SDS011;11184;52.444;13.578;2023-09-30T10:06:38;10.40;;;2.30;;
22040;SDS011;11184;52.444;13.578;2023-09-30T10:09:25;7.68;;;1.92;;
22040;SDS011;11184;52.444;13.578;2023-09-30T10:12:10;16.15;;;2.80;;
22040;SDS011;11184;52.444;13.578;2023-09-30T10:14:55;10.07;;;2.00;;
22040;SDS011;11184;52.444;13.578;2023-09-30T10:17:56;9.07;;;1.92;;
22040;SDS011;11184;52.444;13.578;2023-09-30T10:20:41;11.00;;;2.35;;
22040;SDS011;11184;52.444;13.578;2023-09-30T10:23:31;10.20;;;2.47;;
22040;SDS011;11184;52.444;13.578;2023-09-30T10:26:19;8.50;;;2.80;;
22040;SDS011;11184;52.444;13.578;2023-09-30T10:29:08;6.78;;;2.13;;
22040;SDS011;11184;52.444;13.578;2023-09-30T10:31:53;6.28;;;1.70;;
22040;SDS011;11184;52.444;13.578;2023-09-30T10:34:38;9.07;;;1.42;;
22040;SDS011;11184;52.444;13.578;2023-09-30T10:37:23;9.85;;;2.47;;
22040;SDS011;11184;52.444;13.578;2023-09-30T10:40:28;10.18;;;2.55;;
22040;SDS011;11184;52.444;13.578;2023-09-30T10:43:29;4.88;;;1.85;;
22040;SDS011;11184;52.444;13.578;2023-09-30T10:49:15;5.38;;;1.60;;
22040;SDS011;11184;52.444;13.578;2023-09-30T10:52:01;6.88;;;1.80;;
22040;SDS011;11184;52.444;13.578;2023-09-30T10:54:46;6.90;;;2.10;;
22040;SDS011;11184;52.444;13.578;2023-09-30T10:57:30;8.23;;;2.00;;
22040;SDS011;11184;52.444;13.578;2023-09-30T11:00:15;9.38;;;1.65;;
22040;SDS011;11184;52.444;13.578;2023-09-30T11:02:59;6.78;;;1.77;;
22040;SDS011;11184;52.444;13.578;2023-09-30T11:05:47;7.55;;;1.58;;
22040;SDS011;11184;52.444;13.578;2023-09-30T11:08:32;6.20;;;1.65;;
22040;SDS011;11184;52.444;13.578;2023-09-30T11:11:18;8.35;;;1.98;;
22040;SDS011;11184;52.444;13.578;2023-09-30T11:14:03;7.82;;;1.83;;
22040;SDS011;11184;52.444;13.578;2023-09-30T11:16:50;9.05;;;1.92;;
22040;SDS011;11184;52.444;13.578;2023-09-30T11:19:47;8.27;;;2.25;;
22040;SDS011;11184;52.444;13.578;2023-09-30T11:22:32;3.42;;;1.45;;
22040;SDS011;11184;52.444;13.578;2023-09-30T11:25:18;6.70;;;1.88;;
22040;SDS011;11184;52.444;13.578;2023-09-30T11:28:18;6.55;;;2.30;;
22040;SDS011;11184;52.444;13.578;2023-09-30T11:31:07;6.45;;;1.52;;
22040;SDS011;11184;52.444;13.578;2023-09-30T11:33:54;6.85;;;1.83;;
22040;SDS011;11184;52.444;13.578;2023-09-30T11:36:41;7.85;;;1.73;;
22040;SDS011;11184;52.444;13.578;2023-09-30T11:39:31;4.57;;;1.83;;
22040;SDS011;11184;52.444;13.578;2023-09-30T11:42:17;6.75;;;2.10;;
22040;SDS011;11184;52.444;13.578;2023-09-30T11:45:17;3.53;;;1.23;;
22040;SDS011;11184;52.444;13.578;2023-09-30T11:48:15;7.85;;;2.33;;
22040;SDS011;11184;52.444;13.578;2023-09-30T11:51:00;4.57;;;1.50;;
22040;SDS011;11184;52.444;13.578;2023-09-30T11:53:45;5.90;;;1.50;;
22040;SDS011;11184;52.444;13.578;2023-09-30T11:56:31;6.80;;;1.80;;
22040;SDS011;11184;52.444;13.578;2023-09-30T11:59:17;6.07;;;1.67;;
22040;SDS011;11184;52.444;13.578;2023-09-30T12:02:03;4.43;;;1.67;;
22040;SDS011;11184;52.444;13.578;2023-09-30T12:04:52;5.63;;;1.38;;
22040;SDS011;11184;52.444;13.578;2023-09-30T12:07:37;8.35;;;2.55;;
22040;SDS011;11184;52.444;13.578;2023-09-30T12:10:25;9.65;;;1.75;;
22040;SDS011;11184;52.444;13.578;2023-09-30T12:13:09;6.35;;;1.85;;
22040;SDS011;11184;52.444;13.578;2023-09-30T12:15:55;9.85;;;1.40;;
22040;SDS011;11184;52.444;13.578;2023-09-30T12:18:40;6.80;;;1.40;;
22040;SDS011;11184;52.444;13.578;2023-09-30T12:21:25;7.22;;;1.73;;
22040;SDS011;11184;52.444;13.578;2023-09-30T12:24:10;9.27;;;2.17;;
22040;SDS011;11184;52.444;13.578;2023-09-30T12:26:57;6.78;;;2.17;;
22040;SDS011;11184;52.444;13.578;2023-09-30T12:29:42;5.88;;;2.03;;
22040;SDS011;11184;52.444;13.578;2023-09-30T12:32:27;9.35;;;1.75;;
22040;SDS011;11184;52.444;13.578;2023-09-30T12:35:12;8.00;;;1.75;;
22040;SDS011;11184;52.444;13.578;2023-09-30T12:37:56;5.88;;;1.88;;
22040;SDS011;11184;52.444;13.578;2023-09-30T12:40:41;6.22;;;1.63;;
22040;SDS011;11184;52.444;13.578;2023-09-30T12:43:27;8.68;;;1.90;;
22040;SDS011;11184;52.444;13.578;2023-09-30T12:46:11;2.83;;;1.10;;
22040;SDS011;11184;52.444;13.578;2023-09-30T12:48:57;5.18;;;1.50;;
22040;SDS011;11184;52.444;13.578;2023-09-30T12:51:41;10.27;;;2.33;;
22040;SDS011;11184;52.444;13.578;2023-09-30T12:54:26;8.32;;;1.58;;
22040;SDS011;11184;52.444;13.578;2023-09-30T12:57:11;9.73;;;1.70;;
22040;SDS011;11184;52.444;13.578;2023-09-30T12:59:57;12.38;;;2.28;;
22040;SDS011;11184;52.444;13.578;2023-09-30T13:02:42;4.78;;;2.38;;
22040;SDS011;11184;52.444;13.578;2023-09-30T13:05:26;6.40;;;1.27;;
22040;SDS011;11184;52.444;13.578;2023-09-30T13:08:12;5.32;;;1.73;;
22040;SDS011;11184;52.444;13.578;2023-09-30T13:10:57;7.50;;;1.83;;
22040;SDS011;11184;52.444;13.578;2023-09-30T13:13:43;5.63;;;1.77;;
22040;SDS011;11184;52.444;13.578;2023-09-30T13:16:29;7.03;;;1.25;;
22040;SDS011;11184;52.444;13.578;2023-09-30T13:19:14;6.95;;;0.85;;
22040;SDS011;11184;52.444;13.578;2023-09-30T13:21:59;8.50;;;1.48;;
22040;SDS011;11184;52.444;13.578;2023-09-30T13:24:44;4.80;;;1.48;;
22040;SDS011;11184;52.444;13.578;2023-09-30T13:27:29;8.65;;;1.67;;
22040;SDS011;11184;52.444;13.578;2023-09-30T13:30:13;5.00;;;1.25;;
22040;SDS011;11184;52.444;13.578;2023-09-30T13:32:58;7.70;;;1.25;;
22040;SDS011;11184;52.444;13.578;2023-09-30T13:35:45;4.30;;;1.40;;
22040;SDS011;11184;52.444;13.578;2023-09-30T13:38:30;3.45;;;1.02;;
22040;SDS011;11184;52.444;13.578;2023-09-30T13:41:14;4.80;;;1.50;;
22040;SDS011;11184;52.444;13.578;2023-09-30T13:43:59;2.97;;;0.98;;
22040;SDS011;11184;52.444;13.578;2023-09-30T13:46:44;4.40;;;1.90;;
22040;SDS011;11184;52.444;13.578;2023-09-30T13:49:29;3.45;;;0.95;;
22040;SDS011;11184;52.444;13.578;2023-09-30T13:52:17;5.13;;;1.30;;
22040;SDS011;11184;52.444;13.578;2023-09-30T13:55:02;4.63;;;1.65;;
22040;SDS011;11184;52.444;13.578;2023-09-30T13:57:48;5.68;;;1.50;;
22040;SDS011;11184;52.444;13.578;2023-09-30T14:00:33;3.75;;;0.75;;
22040;SDS011;11184;52.444;13.578;2023-09-30T14:03:18;5.55;;;1.48;;
22040;SDS011;11184;52.444;13.578;2023-09-30T14:06:08;6.72;;;1.17;;
22040;SDS011;11184;52.444;13.578;2023-09-30T14:08:54;2.65;;;1.02;;
22040;SDS011;11184;52.444;13.578;2023-09-30T14:11:39;7.32;;;1.60;;
22040;SDS011;11184;52.444;13.578;2023-09-30T14:14:24;6.97;;;1.33;;
22040;SDS011;11184;52.444;13.578;2023-09-30T14:17:08;3.80;;;1.15;;
22040;SDS011;11184;52.444;13.578;2023-09-30T14:19:57;5.57;;;1.25;;
22040;SDS011;11184;52.444;13.578;2023-09-30T14:22:42;3.78;;;1.15;;
22040;SDS011;11184;52.444;13.578;2023-09-30T14:25:27;4.88;;;1.00;;
22040;SDS011;11184;52.444;13.578;2023-09-30T14:28:12;6.22;;;1.25;;
22040;SDS011;11184;52.444;13.578;2023-09-30T14:30:57;6.97;;;1.58;;
22040;SDS011;11184;52.444;13.578;2023-09-30T14:33:42;3.50;;;1.10;;
22040;SDS011;11184;52.444;13.578;2023-09-30T14:36:26;3.42;;;1.60;;
22040;SDS011;11184;52.444;13.578;2023-09-30T14:39:11;3.90;;;1.38;;
22040;SDS011;11184;52.444;13.578;2023-09-30T14:41:56;5.00;;;1.00;;
22040;SDS011;11184;52.444;13.578;2023-09-30T14:44:40;5.25;;;0.95;;
22040;SDS011;11184;52.444;13.578;2023-09-30T14:47:26;4.68;;;1.58;;
22040;SDS011;11184;52.444;13.578;2023-09-30T14:50:10;8.52;;;1.15;;
22040;SDS011;11184;52.444;13.578;2023-09-30T14:52:55;5.78;;;1.13;;
22040;SDS011;11184;52.444;13.578;2023-09-30T14:55:40;4.60;;;1.45;;
22040;SDS011;11184;52.444;13.578;2023-09-30T14:58:24;6.97;;;1.10;;
22040;SDS011;11184;52.444;13.578;2023-09-30T15:01:09;3.63;;;1.27;;
22040;SDS011;11184;52.444;13.578;2023-09-30T15:03:53;2.47;;;1.67;;
22040;SDS011;11184;52.444;13.578;2023-09-30T15:06:38;6.18;;;1.63;;
22040;SDS011;11184;52.444;13.578;2023-09-30T15:09:23;8.48;;;1.58;;
22040;SDS011;11184;52.444;13.578;2023-09-30T15:12:07;6.45;;;1.02;;
22040;SDS011;11184;52.444;13.578;2023-09-30T15:14:52;5.20;;;1.23;;
22040;SDS011;11184;52.444;13.578;2023-09-30T15:17:36;7.57;;;1.08;;
22040;SDS011;11184;52.444;13.578;2023-09-30T15:20:21;3.30;;;1.42;;
22040;SDS011;11184;52.444;13.578;2023-09-30T15:23:05;4.75;;;1.38;;
22040;SDS011;11184;52.444;13.578;2023-09-30T15:25:50;5.63;;;1.05;;
22040;SDS011;11184;52.444;13.578;2023-09-30T15:28:35;3.85;;;0.82;;
22040;SDS011;11184;52.444;13.578;2023-09-30T15:31:19;4.47;;;1.55;;
22040;SDS011;11184;52.444;13.578;2023-09-30T15:34:04;4.60;;;1.15;;
22040;SDS011;11184;52.444;13.578;2023-09-30T15:36:49;7.22;;;1.35;;
22040;SDS011;11184;52.444;13.578;2023-09-30T15:39:37;6.15;;;1.58;;
22040;SDS011;11184;52.444;13.578;2023-09-30T15:42:22;7.05;;;1.92;;
22040;SDS011;11184;52.444;13.578;2023-09-30T15:45:07;4.38;;;1.10;;
22040;SDS011;11184;52.444;13.578;2023-09-30T15:47:51;6.93;;;1.45;;
22040;SDS011;11184;52.444;13.578;2023-09-30T15:50:36;7.07;;;1.40;;
22040;SDS011;11184;52.444;13.578;2023-09-30T15:53:20;5.43;;;1.02;;
22040;SDS011;11184;52.444;13.578;2023-09-30T15:56:05;3.45;;;1.23;;
22040;SDS011;11184;52.444;13.578;2023-09-30T15:58:50;7.60;;;1.67;;
22040;SDS011;11184;52.444;13.578;2023-09-30T16:01:36;5.68;;;1.42;;
22040;SDS011;11184;52.444;13.578;2023-09-30T16:04:20;2.95;;;0.93;;
22040;SDS011;11184;52.444;13.578;2023-09-30T16:07:05;6.45;;;1.05;;
22040;SDS011;11184;52.444;13.578;2023-09-30T16:09:50;2.50;;;1.20;;
22040;SDS011;11184;52.444;13.578;2023-09-30T16:12:34;4.43;;;1.58;;
22040;SDS011;11184;52.444;13.578;2023-09-30T16:15:19;4.72;;;1.20;;
22040;SDS011;11184;52.444;13.578;2023-09-30T16:18:04;9.48;;;1.48;;
22040;SDS011;11184;52.444;13.578;2023-09-30T16:20:49;7.32;;;1.55;;